Latest Weather Observations for Clermont Airport

IDQ60801

Issued at 11:42 am EST Sunday 18 November 2018 (issued every 10 minutes, with the page automatically refreshed every 10 minutes)

About weather observations | Map of weather stations | Latest weather observations for QLD | Other Formats
Station Details ID: 035124 Name: CLERMONT AIRPORT Lat: -22.78 Lon: 147.62 Height: 270.27 m
Data from the previous 72 hours. | See also: Recent months at Clermont Airport
Date/Time
EST
Temp
°C
App
Temp
°C
Dew
Point
°C
Rel
Hum
%
Delta-T
°C
Wind Press
QNH
hPa
Press
MSL
hPa
Rain since
9am
mm
Dir  Spd
km/h
Gust
km/h
Spd
kts
Gust
kts
18/11:30am 31.4 30.2 11.7 29 11.6 E 9 19 5 10 1013.9 1012.3 0.0
18/11:00am 31.1 29.0 11.0 29 11.7 NE 13 22 7 12 1014.2 1012.5 0.0
18/10:30am 29.7 27.8 13.0 35 10.0 NNE 15 28 8 15 1014.6 1012.9 0.0
18/10:00am 28.9 27.7 13.9 39 9.1 NNE 13 28 7 15 1014.9 1013.2 0.0
18/09:30am 28.7 27.3 14.5 42 8.7 NNE 15 20 8 11 1015.2 1013.5 0.0
18/09:00am 27.4 25.0 14.4 45 7.9 NNE 20 28 11 15 1015.1 1013.4 0.0
18/08:30am 26.2 24.3 15.3 51 6.7 NNE 19 28 10 15 1014.8 1013.1 0.0
18/08:00am 25.4 23.5 15.1 53 6.3 NNE 19 30 10 16 1014.8 1013.1 0.0
18/07:30am 24.8 23.2 14.9 54 6.0 NNE 17 24 9 13 1014.6 1012.9 0.0
18/07:00am 24.3 21.2 14.4 54 5.9 NNE 24 33 13 18 1014.3 1012.6 0.0
18/06:30am 24.4 22.2 13.3 50 6.5 NNE 17 28 9 15 1013.8 1012.2 0.0
18/06:00am 24.3 22.2 12.3 47 6.9 NNE 15 22 8 12 1013.6 1012.0 0.0
18/05:30am 24.2 23.2 12.2 47 6.9 NE 9 13 5 7 1013.2 1011.6 0.0
18/05:00am 24.3 23.2 11.9 45 7.1 NNE 9 15 5 8 1013.1 1011.5 0.0
18/04:30am 24.3 23.7 11.6 45 7.3 NE 6 7 3 4 1013.0 1011.4 0.0
18/04:00am 24.2 23.7 11.9 46 7.1 NE 6 11 3 6 1012.5 1010.9 0.0
18/03:30am 24.2 23.7 11.9 46 7.1 NE 6 9 3 5 1012.2 1010.5 0.0
18/03:00am 24.5 23.9 11.8 45 7.3 NE 6 9 3 5 1012.4 1010.8 0.0
18/02:30am 24.9 24.1 11.1 42 7.8 ENE 6 7 3 4 1012.6 1011.0 0.0
18/02:00am 25.2 25.4 13.1 47 7.1 ENE 4 9 2 5 1012.9 1011.3 0.0
18/01:30am 25.3 25.5 14.7 51 6.4 SE 7 11 4 6 1013.1 1011.5 0.0
18/01:00am 25.6 25.5 15.0 52 6.4 SE 9 15 5 8 1013.5 1011.9 0.0
18/12:30am 25.5 25.5 15.2 53 6.3 SE 9 17 5 9 1013.7 1012.1 0.0
18/12:00am 25.6 25.6 15.3 53 6.3 SSE 9 15 5 8 1014.2 1012.5 0.0
 
Date/Time
EST
Temp
°C
App
Temp
°C
Dew
Point
°C
Rel
Hum
%
Delta-T
°C
Wind Press
QNH
hPa
Press
MSL
hPa
Rain since
9am
mm
Dir  Spd
km/h
Gust
km/h
Spd
kts
Gust
kts
17/11:30pm 25.8 25.4 15.2 52 6.5 SSE 11 17 6 9 1014.5 1012.8 0.0
17/11:00pm 26.3 25.5 15.0 49 6.9 SSE 13 22 7 12 1014.6 1012.9 0.0
17/10:30pm 27.2 24.9 14.2 44 7.9 SSE 19 32 10 17 1014.6 1012.9 0.0
17/10:00pm 28.0 26.0 12.8 39 9.0 SSE 15 24 8 13 1014.5 1012.8 0.0
17/09:30pm 28.2 26.8 12.1 37 9.4 S 11 19 6 10 1014.3 1012.6 0.0
17/09:00pm 29.9 28.3 11.4 32 10.8 SSE 11 32 6 17 1013.4 1011.8 0.0
17/08:30pm 30.8 28.7 9.6 27 12.1 NE 11 20 6 11 1012.2 1010.5 0.0
17/08:00pm 31.0 29.0 8.7 25 12.6 NE 9 13 5 7 1011.6 1009.9 0.0
17/07:30pm 31.4 30.0 9.0 25 12.7 NE 6 9 3 5 1011.5 1009.8 0.0
17/07:00pm 32.0 30.8 9.5 25 12.9 NE 6 9 3 5 1011.3 1009.6 0.0
17/06:30pm 33.0 31.3 9.7 24 13.4 NE 9 15 5 8 1010.7 1009.0 0.0
17/06:00pm 33.7 32.5 9.7 23 13.9 ENE 6 11 3 6 1010.4 1008.7 0.0
17/05:30pm 34.8 33.1 9.9 22 14.5 NE 9 17 5 9 1010.3 1008.6 0.0
17/05:00pm 34.9 33.4 9.3 21 14.8 N 7 13 4 7 1010.1 1008.5 0.0
17/04:30pm 34.8 32.6 9.3 21 14.7 ENE 11 17 6 9 1010.1 1008.5 0.0
17/04:00pm 35.0 33.6 8.7 20 15.1 N 6 15 3 8 1010.0 1008.4 0.0
17/03:30pm 35.4 33.7 9.7 21 15.0 NE 9 15 5 8 1010.3 1008.6 0.0
17/03:00pm 35.3 33.0 8.9 20 15.2 E 11 22 6 12 1010.5 1008.8 0.0
17/02:30pm 34.9 32.1 8.6 20 15.0 ESE 13 19 7 10 1011.1 1009.4 0.0
17/02:00pm 35.4 32.5 8.3 19 15.5 ENE 13 20 7 11 1011.5 1009.8 0.0
17/01:30pm 34.6 32.5 9.8 22 14.4 NNE 11 19 6 10 1012.1 1010.4 0.0
17/01:00pm 34.5 33.0 10.4 23 14.2 ENE 9 20 5 11 1012.6 1011.0 0.0
17/12:30pm 34.1 32.4 10.0 23 14.0 N 9 19 5 10 1013.0 1011.4 0.0
17/12:00pm 33.4 32.3 10.7 25 13.3 N 7 15 4 8 1013.6 1012.0 0.0
17/11:30am 32.6 31.3 11.2 27 12.6 NNE 9 22 5 12 1014.4 1012.7 0.0
17/11:00am 31.8 30.2 11.6 29 11.9 N 11 22 6 12 1014.9 1013.2 0.0
17/10:30am 31.3 29.6 11.1 29 11.8 NE 11 20 6 11 1015.2 1013.5 0.0
17/10:00am 30.2 28.1 11.2 31 11.1 NNE 13 24 7 13 1015.5 1013.8 0.0
17/09:30am 30.1 28.3 12.1 33 10.6 N 13 24 7 13 1015.6 1013.9 0.0
17/09:00am 28.9 27.8 11.9 35 10.0 NNE 9 17 5 9 1015.7 1014.1 0.0
17/08:30am 27.3 25.2 11.3 37 9.2 N 13 22 7 12 1015.9 1014.3 0.0
17/08:00am 26.3 25.8 12.0 41 8.3 NE 6 11 3 6 1015.9 1014.3 0.0
17/07:30am 24.9 24.4 12.8 47 7.1 N 7 11 4 6 1015.7 1014.1 0.0
17/07:00am 24.3 23.9 12.9 49 6.7 N 7 11 4 6 1015.2 1013.5 0.0
17/06:30am 22.5 23.1 13.0 55 5.5 NW 2 6 1 3 1014.9 1013.2 0.0
17/06:00am 21.2 21.4 12.9 59 4.8 NE 4 6 2 3 1014.6 1012.9 0.0
17/05:30am 19.7 20.3 12.0 61 4.3 CALM 0 2 0 1 1014.2 1012.5 0.0
17/05:00am 19.9 20.0 11.4 58 4.7 NE 2 4 1 2 1013.8 1012.2 0.0
17/04:30am 21.3 20.8 12.2 56 5.2 NE 6 9 3 5 1013.4 1011.8 0.0
17/04:00am 22.0 22.0 12.3 54 5.6 NE 4 6 2 3 1013.3 1011.7 0.0
17/03:30am 22.8 22.2 12.4 52 6.0 NNE 7 11 4 6 1013.0 1011.4 0.0
17/03:00am 23.4 22.1 12.4 50 6.4 NNE 11 19 6 10 1012.7 1011.1 0.0
17/02:30am 23.5 22.8 13.1 52 6.1 N 9 13 5 7 1012.8 1011.2 0.0
17/02:00am 23.9 23.0 13.7 53 6.0 N 11 17 6 9 1012.8 1011.2 0.0
17/01:30am 24.4 23.5 13.6 51 6.4 N 11 17 6 9 1013.0 1011.4 0.0
17/01:00am 23.9 23.5 12.5 49 6.6 N 6 9 3 5 1013.2 1011.6 0.0
17/12:30am 24.5 24.4 12.1 46 7.2 NNE 4 6 2 3 1013.5 1011.9 0.0
17/12:00am 25.0 24.6 11.2 42 7.9 NNE 4 6 2 3 1013.7 1012.1 0.0
 
Date/Time
EST
Temp
°C
App
Temp
°C
Dew
Point
°C
Rel
Hum
%
Delta-T
°C
Wind Press
QNH
hPa
Press
MSL
hPa
Rain since
9am
mm
Dir  Spd
km/h
Gust
km/h
Spd
kts
Gust
kts
16/11:30pm 26.1 25.1 11.1 39 8.6 NE 7 13 4 7 1013.9 1012.3 0.0
16/11:00pm 26.8 24.6 10.9 37 9.1 NNE 13 19 7 10 1013.9 1012.3 0.0
16/10:30pm 27.4 25.1 10.6 35 9.6 NNE 13 22 7 12 1014.0 1012.4 0.0
16/10:00pm 27.8 25.3 9.6 32 10.2 NNE 13 20 7 11 1013.9 1012.3 0.0
16/09:30pm 27.5 25.3 9.3 32 10.2 NNE 11 20 6 11 1013.8 1012.2 0.0
16/09:00pm 27.3 26.5 8.2 30 10.5 E 2 4 1 2 1013.4 1011.8 0.0
16/08:30pm 28.0 26.7 7.8 28 11.0 ENE 4 6 2 3 1012.9 1011.3 0.0
16/08:00pm 28.6 27.2 7.2 26 11.6 E 4 6 2 3 1012.7 1011.1 0.0
16/07:30pm 29.9 29.3 7.2 24 12.4 CALM 0 0 0 0 1012.6 1011.0 0.0
16/07:00pm 31.1 29.6 6.9 22 13.2 E 4 6 2 3 1012.3 1010.6 0.0
16/06:30pm 32.4 30.6 7.3 21 13.9 ESE 6 9 3 5 1012.1 1010.4 0.0
16/06:00pm 33.5 31.4 8.2 21 14.3 ESE 9 15 5 8 1012.0 1010.3 0.0
16/05:30pm 34.0 31.2 7.1 19 15.0 SSE 11 17 6 9 1011.9 1010.2 0.0
16/05:00pm 34.6 31.6 7.6 19 15.2 ESE 13 26 7 14 1011.8 1010.1 0.0
16/04:30pm 35.1 31.4 6.4 17 15.9 SSE 15 24 8 13 1011.7 1010.0 0.0
16/04:00pm 35.6 32.8 6.8 17 16.1 SE 11 19 6 10 1011.6 1009.9 0.0
16/03:30pm 35.5 32.3 8.3 19 15.5 SSE 15 24 8 13 1011.9 1010.2 0.0
16/03:00pm 33.5 31.2 8.9 22 14.1 ESE 11 24 6 13 1012.2 1010.5 0.0
16/02:30pm 35.1 32.9 9.5 21 14.9 S 11 22 6 12 1012.6 1011.0 0.0
16/02:00pm 33.9 30.7 8.5 21 14.4 SE 15 26 8 14 1013.2 1011.6 0.0
16/01:30pm 34.1 32.3 9.4 22 14.3 SE 9 22 5 12 1013.7 1012.1 0.0
16/01:00pm 33.9 32.9 12.3 27 13.0 SE 9 20 5 11 1014.3 1012.6 0.0
16/12:30pm 33.3 31.8 11.8 27 12.8 ESE 11 24 6 13 1014.9 1013.2 0.0
16/12:00pm 32.8 30.9 11.9 28 12.5 ESE 13 22 7 12 1015.5 1013.8 0.0
16/11:30am 32.0 31.0 12.3 30 11.8 S 9 19 5 10 1015.9 1014.3 0.0
16/11:00am 32.9 32.0 12.5 29 12.3 NE 9 15 5 8 1016.3 1014.7 0.0
16/10:30am 31.0 30.0 12.4 32 11.1 SE 9 17 5 9 1016.8 1015.2 0.0
16/10:00am 30.8 30.2 12.2 32 11.0 NE 7 17 4 9 1017.0 1015.4 0.0
16/09:30am 29.4 27.8 11.5 33 10.5 NNE 11 22 6 12 1017.3 1015.7 0.0
16/09:00am 27.8 26.7 11.8 37 9.3 NNE 9 19 5 10 1017.4 1015.8 0.0
16/08:30am 27.1 25.7 12.3 39 8.7 NE 11 20 6 11 1017.5 1015.9 0.0
16/08:00am 26.3 25.7 13.4 45 7.7 NNE 9 24 5 13 1017.6 1016.0 0.0
16/07:30am 25.3 25.4 14.4 50 6.6 NNE 7 11 4 6 1017.4 1015.8 0.0
16/07:00am 23.9 24.4 15.1 58 5.3 NNE 6 9 3 5 1017.1 1015.5 0.0
16/06:30am 22.5 23.0 15.1 63 4.5 NNE 6 9 3 5 1016.7 1015.1 0.0
16/06:00am 21.2 22.7 14.6 66 3.9 CALM 0 0 0 0 1016.6 1015.0 0.0
16/05:30am 20.3 21.7 14.4 69 3.5 CALM 0 0 0 0 1016.4 1014.8 0.0
16/05:00am 20.5 21.8 14.2 67 3.7 CALM 0 0 0 0 1016.0 1014.4 0.0
16/04:30am 21.6 22.7 14.7 65 4.1 NE 2 6 1 3 1015.8 1014.2 0.0
16/04:00am 22.3 22.5 14.7 62 4.5 NNE 7 11 4 6 1015.3 1013.6 0.0
16/03:30am 22.6 22.0 14.7 61 4.7 NNE 11 15 6 8 1015.1 1013.4 0.0
16/03:00am 23.2 22.4 15.0 60 4.9 N 13 22 7 12 1015.1 1013.4 0.0
16/02:30am 23.4 23.4 15.2 60 5.0 N 9 15 5 8 1015.1 1013.4 0.0
16/02:00am 23.8 23.0 15.0 57 5.3 NNE 13 20 7 11 1015.1 1013.4 0.0
16/01:30am 23.7 23.4 14.4 56 5.6 NNE 9 13 5 7 1015.0 1013.3 0.0
16/01:00am 24.4 24.0 14.2 53 6.1 NNE 9 17 5 9 1015.1 1013.4 0.0
16/12:30am 25.0 24.6 14.2 51 6.5 NNE 9 17 5 9 1015.4 1013.7 0.0
16/12:00am 25.7 25.3 14.2 49 6.9 NE 9 17 5 9 1015.6 1013.9 0.0
 
Date/Time
EST
Temp
°C
App
Temp
°C
Dew
Point
°C
Rel
Hum
%
Delta-T
°C
Wind Press
QNH
hPa
Press
MSL
hPa
Rain since
9am
mm
Dir  Spd
km/h
Gust
km/h
Spd
kts
Gust
kts
15/11:30pm 26.2 25.5 14.3 48 7.2 NE 11 17 6 9 1015.8 1014.2 0.0
15/11:00pm 26.9 25.4 14.3 46 7.6 NNE 15 24 8 13 1015.7 1014.1 0.0
15/10:30pm 27.1 26.8 13.4 42 8.2 NNE 7 15 4 8 1015.6 1013.9 0.0
15/10:00pm 27.8 26.8 12.2 38 9.1 NNE 9 19 5 10 1015.5 1013.8 0.0
15/09:30pm 27.1 26.0 9.9 34 9.7 ENE 6 13 3 7 1015.2 1013.5 0.0
15/09:00pm 27.7 27.1 9.0 31 10.4 ESE 2 4 1 2 1015.0 1013.3 0.0
15/08:30pm 27.9 27.7 9.2 31 10.4 CALM 0 4 0 2 1015.0 1013.3 0.0
15/08:00pm 28.2 28.2 9.9 32 10.4 CALM 0 0 0 0 1014.7 1013.0 0.0
15/07:30pm 30.4 29.4 10.4 29 11.5 SE 6 7 3 4 1014.5 1012.8 0.0
15/07:00pm 30.8 29.8 10.2 28 11.9 ESE 6 9 3 5 1014.3 1012.6 0.0
15/06:30pm 31.6 30.6 10.3 27 12.3 ESE 6 9 3 5 1014.0 1012.4 0.0
15/06:00pm 32.4 30.9 10.4 26 12.8 SE 9 15 5 8 1013.8 1012.2 0.0
15/05:30pm 32.8 31.2 10.2 25 13.1 SE 9 13 5 7 1013.5 1011.9 0.0
15/05:00pm 32.6 30.7 10.6 26 12.8 SSE 11 17 6 9 1013.4 1011.8 0.0
15/04:30pm 33.4 31.9 10.7 25 13.3 ESE 9 19 5 10 1013.3 1011.7 0.0
15/04:00pm 33.1 30.8 11.6 27 12.8 SSE 15 26 8 14 1013.5 1011.9 0.0
15/03:30pm 34.3 31.9 11.4 25 13.6 ESE 15 24 8 13 1013.6 1012.0 0.0
15/03:00pm 33.7 31.7 11.5 26 13.2 S 13 24 7 13 1013.8 1012.2 0.0
15/02:30pm 33.0 31.6 12.1 28 12.5 SE 11 22 6 12 1014.2 1012.5 0.0
15/02:00pm 33.1 31.5 11.6 27 12.8 SE 11 24 6 13 1014.5 1012.8 0.0
15/01:30pm 33.1 31.6 13.2 30 12.1 S 13 19 7 10 1015.0 1013.3 0.0
15/01:00pm 31.7 30.0 12.5 31 11.5 ESE 13 22 7 12 1015.5 1013.8 0.0
15/12:30pm 31.9 30.1 13.2 32 11.3 SE 15 26 8 14 1016.0 1014.4 0.0
15/12:00pm 31.7 31.6 13.9 34 10.9 S 7 15 4 8 1016.5 1014.9 0.0

Other Formats:

Comma delimited format used in spreadsheet applications
http://www.bom.gov.au/fwo/IDQ60801/IDQ60801.94395.axf

JavaScript Object Notation format (JSON) in row-major order
http://www.bom.gov.au/fwo/IDQ60801/IDQ60801.94395.json